sensor_id;sensor_type;location;lat;lon;timestamp;temperature;humidity
32394;DHT22;18853;45.426;9.206;2022-11-20T00:00:28;14.10;54.80
32394;DHT22;18853;45.426;9.206;2022-11-20T00:02:54;14.00;54.80
32394;DHT22;18853;45.426;9.206;2022-11-20T00:05:20;13.90;54.80
32394;DHT22;18853;45.426;9.206;2022-11-20T00:07:46;13.80;54.70
32394;DHT22;18853;45.426;9.206;2022-11-20T00:10:12;13.70;54.80
32394;DHT22;18853;45.426;9.206;2022-11-20T00:12:37;13.60;55.00
32394;DHT22;18853;45.426;9.206;2022-11-20T00:15:03;13.60;55.00
32394;DHT22;18853;45.426;9.206;2022-11-20T00:17:29;13.50;55.00
32394;DHT22;18853;45.426;9.206;2022-11-20T00:19:55;13.40;55.10
32394;DHT22;18853;45.426;9.206;2022-11-20T00:22:20;13.40;55.30
32394;DHT22;18853;45.426;9.206;2022-11-20T00:24:46;13.40;55.50
32394;DHT22;18853;45.426;9.206;2022-11-20T00:27:12;13.30;55.70
32394;DHT22;18853;45.426;9.206;2022-11-20T00:29:37;13.30;56.00
32394;DHT22;18853;45.426;9.206;2022-11-20T00:32:03;13.20;56.30
32394;DHT22;18853;45.426;9.206;2022-11-20T00:34:28;13.10;56.70
32394;DHT22;18853;45.426;9.206;2022-11-20T00:36:54;13.00;56.90
32394;DHT22;18853;45.426;9.206;2022-11-20T00:39:20;13.00;56.60
32394;DHT22;18853;45.426;9.206;2022-11-20T00:41:45;13.00;56.80
32394;DHT22;18853;45.426;9.206;2022-11-20T00:44:11;13.00;57.00
32394;DHT22;18853;45.426;9.206;2022-11-20T00:46:36;13.00;56.60
32394;DHT22;18853;45.426;9.206;2022-11-20T00:49:02;13.00;56.40
32394;DHT22;18853;45.426;9.206;2022-11-20T00:51:28;13.00;56.40
32394;DHT22;18853;45.426;9.206;2022-11-20T00:53:57;12.90;56.60
32394;DHT22;18853;45.426;9.206;2022-11-20T00:56:23;12.90;56.50
32394;DHT22;18853;45.426;9.206;2022-11-20T00:58:49;12.90;56.60
32394;DHT22;18853;45.426;9.206;2022-11-20T01:01:23;12.90;56.60
32394;DHT22;18853;45.426;9.206;2022-11-20T01:03:50;12.90;56.40
32394;DHT22;18853;45.426;9.206;2022-11-20T01:06:19;12.90;56.20
32394;DHT22;18853;45.426;9.206;2022-11-20T01:08:46;12.90;56.20
32394;DHT22;18853;45.426;9.206;2022-11-20T01:11:14;12.90;56.20
32394;DHT22;18853;45.426;9.206;2022-11-20T01:13:41;12.80;56.10
32394;DHT22;18853;45.426;9.206;2022-11-20T01:16:08;12.80;56.10
32394;DHT22;18853;45.426;9.206;2022-11-20T01:18:35;12.80;56.10
32394;DHT22;18853;45.426;9.206;2022-11-20T01:21:16;12.80;55.90
32394;DHT22;18853;45.426;9.206;2022-11-20T01:23:42;12.80;55.70
32394;DHT22;18853;45.426;9.206;2022-11-20T01:26:11;12.70;55.70
32394;DHT22;18853;45.426;9.206;2022-11-20T01:28:37;12.70;56.00
32394;DHT22;18853;45.426;9.206;2022-11-20T01:31:18;12.70;55.80
32394;DHT22;18853;45.426;9.206;2022-11-20T01:33:45;12.70;55.80
32394;DHT22;18853;45.426;9.206;2022-11-20T01:36:12;12.60;56.20
32394;DHT22;18853;45.426;9.206;2022-11-20T01:38:38;12.60;56.30
32394;DHT22;18853;45.426;9.206;2022-11-20T01:41:04;12.60;56.30
32394;DHT22;18853;45.426;9.206;2022-11-20T01:43:30;12.50;56.10
32394;DHT22;18853;45.426;9.206;2022-11-20T01:48:30;12.50;56.20
32394;DHT22;18853;45.426;9.206;2022-11-20T01:50:58;12.50;56.30
32394;DHT22;18853;45.426;9.206;2022-11-20T01:53:29;12.40;56.40
32394;DHT22;18853;45.426;9.206;2022-11-20T01:56:00;12.50;56.30
32394;DHT22;18853;45.426;9.206;2022-11-20T01:58:32;12.50;56.10
32394;DHT22;18853;45.426;9.206;2022-11-20T02:00:59;12.50;55.80
32394;DHT22;18853;45.426;9.206;2022-11-20T02:03:26;12.40;55.80
32394;DHT22;18853;45.426;9.206;2022-11-20T02:05:55;12.40;55.90
32394;DHT22;18853;45.426;9.206;2022-11-20T02:08:21;12.40;55.80
32394;DHT22;18853;45.426;9.206;2022-11-20T02:10:48;12.50;55.70
32394;DHT22;18853;45.426;9.206;2022-11-20T02:13:14;12.50;55.70
32394;DHT22;18853;45.426;9.206;2022-11-20T02:15:58;12.50;55.40
32394;DHT22;18853;45.426;9.206;2022-11-20T02:18:24;12.50;55.20
32394;DHT22;18853;45.426;9.206;2022-11-20T02:20:58;12.40;55.10
32394;DHT22;18853;45.426;9.206;2022-11-20T02:23:38;12.40;55.10
32394;DHT22;18853;45.426;9.206;2022-11-20T02:26:08;12.40;55.10
32394;DHT22;18853;45.426;9.206;2022-11-20T02:28:35;12.30;55.30
32394;DHT22;18853;45.426;9.206;2022-11-20T02:31:01;12.30;55.20
32394;DHT22;18853;45.426;9.206;2022-11-20T02:33:26;12.30;55.20
32394;DHT22;18853;45.426;9.206;2022-11-20T02:35:52;12.30;55.20
32394;DHT22;18853;45.426;9.206;2022-11-20T02:38:18;12.20;55.40
32394;DHT22;18853;45.426;9.206;2022-11-20T02:40:43;12.20;55.50
32394;DHT22;18853;45.426;9.206;2022-11-20T02:43:09;12.20;55.80
32394;DHT22;18853;45.426;9.206;2022-11-20T02:45:35;12.20;56.00
32394;DHT22;18853;45.426;9.206;2022-11-20T02:48:01;12.20;56.00
32394;DHT22;18853;45.426;9.206;2022-11-20T02:50:26;12.20;56.00
32394;DHT22;18853;45.426;9.206;2022-11-20T02:52:52;12.30;56.30
32394;DHT22;18853;45.426;9.206;2022-11-20T02:55:18;12.30;56.10
32394;DHT22;18853;45.426;9.206;2022-11-20T02:57:43;12.40;55.50
32394;DHT22;18853;45.426;9.206;2022-11-20T03:00:09;12.40;54.90
32394;DHT22;18853;45.426;9.206;2022-11-20T03:02:35;12.40;54.40
32394;DHT22;18853;45.426;9.206;2022-11-20T03:05:01;12.30;54.00
32394;DHT22;18853;45.426;9.206;2022-11-20T03:07:26;12.20;53.80
32394;DHT22;18853;45.426;9.206;2022-11-20T03:09:52;12.20;53.70
32394;DHT22;18853;45.426;9.206;2022-11-20T03:12:18;12.10;53.60
32394;DHT22;18853;45.426;9.206;2022-11-20T03:14:43;12.10;53.50
32394;DHT22;18853;45.426;9.206;2022-11-20T03:17:09;12.10;53.30
32394;DHT22;18853;45.426;9.206;2022-11-20T03:19:34;12.00;53.40
32394;DHT22;18853;45.426;9.206;2022-11-20T03:22:00;11.90;53.50
32394;DHT22;18853;45.426;9.206;2022-11-20T03:24:26;11.90;53.60
32394;DHT22;18853;45.426;9.206;2022-11-20T03:26:52;11.90;53.60
32394;DHT22;18853;45.426;9.206;2022-11-20T03:29:18;11.90;54.10
32394;DHT22;18853;45.426;9.206;2022-11-20T03:31:43;11.80;53.60
32394;DHT22;18853;45.426;9.206;2022-11-20T03:34:10;11.80;53.60
32394;DHT22;18853;45.426;9.206;2022-11-20T03:36:40;11.70;53.60
32394;DHT22;18853;45.426;9.206;2022-11-20T03:39:06;11.70;54.40
32394;DHT22;18853;45.426;9.206;2022-11-20T03:41:36;11.70;54.10
32394;DHT22;18853;45.426;9.206;2022-11-20T03:44:04;11.70;54.50
32394;DHT22;18853;45.426;9.206;2022-11-20T03:46:31;11.70;53.90
32394;DHT22;18853;45.426;9.206;2022-11-20T03:48:57;11.70;54.00
32394;DHT22;18853;45.426;9.206;2022-11-20T03:51:31;11.70;54.30
32394;DHT22;18853;45.426;9.206;2022-11-20T03:53:59;11.70;54.40
32394;DHT22;18853;45.426;9.206;2022-11-20T03:56:27;11.60;54.70
32394;DHT22;18853;45.426;9.206;2022-11-20T03:58:54;11.60;55.00
32394;DHT22;18853;45.426;9.206;2022-11-20T04:01:22;11.60;55.20
32394;DHT22;18853;45.426;9.206;2022-11-20T04:03:48;11.60;55.50
32394;DHT22;18853;45.426;9.206;2022-11-20T04:06:21;11.60;55.80
32394;DHT22;18853;45.426;9.206;2022-11-20T04:08:47;11.70;56.00
32394;DHT22;18853;45.426;9.206;2022-11-20T04:11:24;11.70;55.90
32394;DHT22;18853;45.426;9.206;2022-11-20T04:13:56;11.70;56.60
32394;DHT22;18853;45.426;9.206;2022-11-20T04:16:24;11.80;55.90
32394;DHT22;18853;45.426;9.206;2022-11-20T04:18:54;11.80;55.70
32394;DHT22;18853;45.426;9.206;2022-11-20T04:21:20;11.80;55.60
32394;DHT22;18853;45.426;9.206;2022-11-20T04:23:46;11.80;55.50
32394;DHT22;18853;45.426;9.206;2022-11-20T04:26:12;11.80;55.40
32394;DHT22;18853;45.426;9.206;2022-11-20T04:28:38;11.80;55.30
32394;DHT22;18853;45.426;9.206;2022-11-20T04:31:25;11.80;55.20
32394;DHT22;18853;45.426;9.206;2022-11-20T04:33:52;11.80;55.70
32394;DHT22;18853;45.426;9.206;2022-11-20T04:38:45;11.70;55.40
32394;DHT22;18853;45.426;9.206;2022-11-20T04:41:20;11.70;55.70
32394;DHT22;18853;45.426;9.206;2022-11-20T04:43:51;11.70;55.20
32394;DHT22;18853;45.426;9.206;2022-11-20T04:46:18;11.70;55.20
32394;DHT22;18853;45.426;9.206;2022-11-20T04:48:44;11.70;54.80
32394;DHT22;18853;45.426;9.206;2022-11-20T04:51:10;11.60;54.70
32394;DHT22;18853;45.426;9.206;2022-11-20T04:53:36;11.70;54.70
32394;DHT22;18853;45.426;9.206;2022-11-20T04:56:03;11.70;54.60
32394;DHT22;18853;45.426;9.206;2022-11-20T04:58:29;11.80;54.80
32394;DHT22;18853;45.426;9.206;2022-11-20T05:01:01;11.80;54.50
32394;DHT22;18853;45.426;9.206;2022-11-20T05:03:27;11.80;54.20
32394;DHT22;18853;45.426;9.206;2022-11-20T05:05:53;11.70;54.10
32394;DHT22;18853;45.426;9.206;2022-11-20T05:08:18;11.70;53.90
32394;DHT22;18853;45.426;9.206;2022-11-20T05:10:44;11.60;53.70
32394;DHT22;18853;45.426;9.206;2022-11-20T05:13:09;11.60;54.40
32394;DHT22;18853;45.426;9.206;2022-11-20T05:15:35;11.50;54.10
32394;DHT22;18853;45.426;9.206;2022-11-20T05:18:00;11.50;54.20
32394;DHT22;18853;45.426;9.206;2022-11-20T05:20:26;11.50;54.30
32394;DHT22;18853;45.426;9.206;2022-11-20T05:22:52;11.50;54.40
32394;DHT22;18853;45.426;9.206;2022-11-20T05:25:17;11.50;54.00
32394;DHT22;18853;45.426;9.206;2022-11-20T05:27:43;11.50;54.50
32394;DHT22;18853;45.426;9.206;2022-11-20T05:30:09;11.50;54.50
32394;DHT22;18853;45.426;9.206;2022-11-20T05:32:35;11.50;54.50
32394;DHT22;18853;45.426;9.206;2022-11-20T05:35:00;11.50;54.50
32394;DHT22;18853;45.426;9.206;2022-11-20T05:37:26;11.50;54.50
32394;DHT22;18853;45.426;9.206;2022-11-20T05:39:51;11.40;54.40
32394;DHT22;18853;45.426;9.206;2022-11-20T05:42:17;11.40;54.60
32394;DHT22;18853;45.426;9.206;2022-11-20T05:44:58;11.40;54.70
32394;DHT22;18853;45.426;9.206;2022-11-20T05:47:25;11.40;54.70
32394;DHT22;18853;45.426;9.206;2022-11-20T05:49:50;11.40;54.80
32394;DHT22;18853;45.426;9.206;2022-11-20T05:52:17;11.40;54.80
32394;DHT22;18853;45.426;9.206;2022-11-20T05:54:42;11.50;54.80
32394;DHT22;18853;45.426;9.206;2022-11-20T05:57:08;11.50;54.90
32394;DHT22;18853;45.426;9.206;2022-11-20T05:59:33;11.40;54.90
32394;DHT22;18853;45.426;9.206;2022-11-20T06:01:59;11.50;54.90
32394;DHT22;18853;45.426;9.206;2022-11-20T06:04:24;11.40;54.80
32394;DHT22;18853;45.426;9.206;2022-11-20T06:06:50;11.40;54.80
32394;DHT22;18853;45.426;9.206;2022-11-20T06:09:16;11.50;54.90
32394;DHT22;18853;45.426;9.206;2022-11-20T06:11:41;11.50;54.90
32394;DHT22;18853;45.426;9.206;2022-11-20T06:14:07;11.50;54.80
32394;DHT22;18853;45.426;9.206;2022-11-20T06:16:32;11.50;54.70
32394;DHT22;18853;45.426;9.206;2022-11-20T06:18:58;11.50;54.70
32394;DHT22;18853;45.426;9.206;2022-11-20T06:21:24;11.50;54.60
32394;DHT22;18853;45.426;9.206;2022-11-20T06:23:50;11.50;54.70
32394;DHT22;18853;45.426;9.206;2022-11-20T06:26:22;11.50;54.80
32394;DHT22;18853;45.426;9.206;2022-11-20T06:28:49;11.50;55.10
32394;DHT22;18853;45.426;9.206;2022-11-20T06:31:16;11.40;55.80
32394;DHT22;18853;45.426;9.206;2022-11-20T06:33:42;11.50;55.30
32394;DHT22;18853;45.426;9.206;2022-11-20T06:36:11;11.50;56.00
32394;DHT22;18853;45.426;9.206;2022-11-20T06:38:38;11.60;56.10
32394;DHT22;18853;45.426;9.206;2022-11-20T06:41:05;11.60;55.60
32394;DHT22;18853;45.426;9.206;2022-11-20T06:43:30;11.60;55.50
32394;DHT22;18853;45.426;9.206;2022-11-20T06:45:57;11.60;55.60
32394;DHT22;18853;45.426;9.206;2022-11-20T06:48:23;11.70;55.70
32394;DHT22;18853;45.426;9.206;2022-11-20T06:50:49;11.70;55.40
32394;DHT22;18853;45.426;9.206;2022-11-20T06:53:15;11.80;55.30
32394;DHT22;18853;45.426;9.206;2022-11-20T06:55:48;11.80;55.00
32394;DHT22;18853;45.426;9.206;2022-11-20T06:58:15;11.80;55.00
32394;DHT22;18853;45.426;9.206;2022-11-20T07:00:41;11.80;54.90
32394;DHT22;18853;45.426;9.206;2022-11-20T07:03:08;11.80;54.70
32394;DHT22;18853;45.426;9.206;2022-11-20T07:05:34;11.80;54.50
32394;DHT22;18853;45.426;9.206;2022-11-20T07:08:01;11.90;54.50
32394;DHT22;18853;45.426;9.206;2022-11-20T07:10:27;11.90;54.40
32394;DHT22;18853;45.426;9.206;2022-11-20T07:12:53;11.90;54.40
32394;DHT22;18853;45.426;9.206;2022-11-20T07:15:20;11.90;54.40
32394;DHT22;18853;45.426;9.206;2022-11-20T07:17:46;12.00;54.20
32394;DHT22;18853;45.426;9.206;2022-11-20T07:20:12;11.90;54.10
32394;DHT22;18853;45.426;9.206;2022-11-20T07:22:38;11.90;54.10
32394;DHT22;18853;45.426;9.206;2022-11-20T07:25:04;12.00;54.10
32394;DHT22;18853;45.426;9.206;2022-11-20T07:27:30;12.00;54.00
32394;DHT22;18853;45.426;9.206;2022-11-20T07:29:56;11.90;54.60
32394;DHT22;18853;45.426;9.206;2022-11-20T07:32:22;11.90;54.00
32394;DHT22;18853;45.426;9.206;2022-11-20T07:34:48;11.90;54.10
32394;DHT22;18853;45.426;9.206;2022-11-20T07:37:14;12.00;54.20
32394;DHT22;18853;45.426;9.206;2022-11-20T07:39:39;12.00;54.20
32394;DHT22;18853;45.426;9.206;2022-11-20T07:42:09;12.00;54.20
32394;DHT22;18853;45.426;9.206;2022-11-20T07:44:34;12.00;54.30
32394;DHT22;18853;45.426;9.206;2022-11-20T07:47:00;11.90;54.50
32394;DHT22;18853;45.426;9.206;2022-11-20T07:49:26;12.10;57.80
32394;DHT22;18853;45.426;9.206;2022-11-20T07:51:52;12.60;60.10
32394;DHT22;18853;45.426;9.206;2022-11-20T07:54:21;12.90;58.40
32394;DHT22;18853;45.426;9.206;2022-11-20T07:56:47;13.20;58.60
32394;DHT22;18853;45.426;9.206;2022-11-20T07:59:13;13.20;55.20
32394;DHT22;18853;45.426;9.206;2022-11-20T08:01:39;13.10;54.60
32394;DHT22;18853;45.426;9.206;2022-11-20T08:04:06;13.00;54.30
32394;DHT22;18853;45.426;9.206;2022-11-20T08:06:31;13.00;54.30
32394;DHT22;18853;45.426;9.206;2022-11-20T08:08:57;12.90;54.20
32394;DHT22;18853;45.426;9.206;2022-11-20T08:11:23;12.90;54.40
32394;DHT22;18853;45.426;9.206;2022-11-20T08:14:07;12.90;54.40
32394;DHT22;18853;45.426;9.206;2022-11-20T08:16:39;12.90;55.20
32394;DHT22;18853;45.426;9.206;2022-11-20T08:19:05;12.80;54.70
32394;DHT22;18853;45.426;9.206;2022-11-20T08:24:08;12.90;54.50
32394;DHT22;18853;45.426;9.206;2022-11-20T08:26:35;12.90;54.60
32394;DHT22;18853;45.426;9.206;2022-11-20T08:29:02;12.90;54.60
32394;DHT22;18853;45.426;9.206;2022-11-20T08:31:29;12.90;54.70
32394;DHT22;18853;45.426;9.206;2022-11-20T08:33:56;13.00;55.00
32394;DHT22;18853;45.426;9.206;2022-11-20T08:36:22;13.00;55.00
32394;DHT22;18853;45.426;9.206;2022-11-20T08:38:50;13.00;54.90
32394;DHT22;18853;45.426;9.206;2022-11-20T08:41:16;13.00;54.60
32394;DHT22;18853;45.426;9.206;2022-11-20T08:44:00;13.00;54.50
32394;DHT22;18853;45.426;9.206;2022-11-20T08:46:36;13.10;54.60
32394;DHT22;18853;45.426;9.206;2022-11-20T08:49:04;13.10;54.50
32394;DHT22;18853;45.426;9.206;2022-11-20T08:51:29;13.10;54.50
32394;DHT22;18853;45.426;9.206;2022-11-20T08:53:55;13.20;54.40
32394;DHT22;18853;45.426;9.206;2022-11-20T08:56:21;13.20;54.50
32394;DHT22;18853;45.426;9.206;2022-11-20T08:58:46;13.30;54.40
32394;DHT22;18853;45.426;9.206;2022-11-20T09:01:12;13.30;54.10
32394;DHT22;18853;45.426;9.206;2022-11-20T09:03:37;13.30;53.80
32394;DHT22;18853;45.426;9.206;2022-11-20T09:06:06;13.40;53.70
32394;DHT22;18853;45.426;9.206;2022-11-20T09:08:32;13.40;53.60
32394;DHT22;18853;45.426;9.206;2022-11-20T09:10:59;13.40;53.60
32394;DHT22;18853;45.426;9.206;2022-11-20T09:13:26;13.50;53.60
32394;DHT22;18853;45.426;9.206;2022-11-20T09:16:00;13.50;53.60
32394;DHT22;18853;45.426;9.206;2022-11-20T09:18:27;13.60;53.30
32394;DHT22;18853;45.426;9.206;2022-11-20T09:21:00;13.60;53.20
32394;DHT22;18853;45.426;9.206;2022-11-20T09:23:27;13.60;53.00
32394;DHT22;18853;45.426;9.206;2022-11-20T09:25:55;13.60;53.10
32394;DHT22;18853;45.426;9.206;2022-11-20T09:28:25;13.60;52.80
32394;DHT22;18853;45.426;9.206;2022-11-20T09:30:51;13.60;52.90
32394;DHT22;18853;45.426;9.206;2022-11-20T09:33:17;13.70;52.70
32394;DHT22;18853;45.426;9.206;2022-11-20T09:35:43;13.70;52.80
32394;DHT22;18853;45.426;9.206;2022-11-20T09:38:10;13.70;52.80
32394;DHT22;18853;45.426;9.206;2022-11-20T09:40:38;13.70;52.70
32394;DHT22;18853;45.426;9.206;2022-11-20T09:43:26;13.80;52.70
32394;DHT22;18853;45.426;9.206;2022-11-20T09:48:42;13.80;53.60
32394;DHT22;18853;45.426;9.206;2022-11-20T09:54:21;13.80;53.90
32394;DHT22;18853;45.426;9.206;2022-11-20T09:56:54;13.80;53.80
32394;DHT22;18853;45.426;9.206;2022-11-20T09:59:40;13.90;53.80
32394;DHT22;18853;45.426;9.206;2022-11-20T10:02:37;13.90;53.90
32394;DHT22;18853;45.426;9.206;2022-11-20T10:05:21;13.80;53.60
32394;DHT22;18853;45.426;9.206;2022-11-20T10:10:43;14.80;69.30
32394;DHT22;18853;45.426;9.206;2022-11-20T10:16:36;15.60;65.30
32394;DHT22;18853;45.426;9.206;2022-11-20T10:32:41;15.10;54.10
32394;DHT22;18853;45.426;9.206;2022-11-20T10:37:43;15.80;53.80
32394;DHT22;18853;45.426;9.206;2022-11-20T10:40:40;16.00;52.10
32394;DHT22;18853;45.426;9.206;2022-11-20T10:43:12;16.30;53.80
32394;DHT22;18853;45.426;9.206;2022-11-20T10:45:57;16.40;53.10
32394;DHT22;18853;45.426;9.206;2022-11-20T10:48:27;16.70;54.10
32394;DHT22;18853;45.426;9.206;2022-11-20T10:54:24;17.20;55.90
32394;DHT22;18853;45.426;9.206;2022-11-20T10:56:55;17.20;50.30
32394;DHT22;18853;45.426;9.206;2022-11-20T10:59:41;17.20;50.70
32394;DHT22;18853;45.426;9.206;2022-11-20T11:02:19;17.30;49.20
32394;DHT22;18853;45.426;9.206;2022-11-20T11:04:48;17.20;49.20
32394;DHT22;18853;45.426;9.206;2022-11-20T11:07:38;17.10;50.40
32394;DHT22;18853;45.426;9.206;2022-11-20T11:13:00;17.30;49.40
32394;DHT22;18853;45.426;9.206;2022-11-20T11:15:38;17.40;49.90
32394;DHT22;18853;45.426;9.206;2022-11-20T11:18:05;17.50;49.50
32394;DHT22;18853;45.426;9.206;2022-11-20T11:20:30;17.60;48.90
32394;DHT22;18853;45.426;9.206;2022-11-20T11:22:58;17.70;48.10
32394;DHT22;18853;45.426;9.206;2022-11-20T11:25:34;17.60;47.40
32394;DHT22;18853;45.426;9.206;2022-11-20T11:28:04;17.70;50.10
32394;DHT22;18853;45.426;9.206;2022-11-20T11:30:41;17.70;51.00
32394;DHT22;18853;45.426;9.206;2022-11-20T11:33:11;17.90;49.60
32394;DHT22;18853;45.426;9.206;2022-11-20T11:35:50;18.10;48.20
32394;DHT22;18853;45.426;9.206;2022-11-20T11:38:38;18.10;48.80
32394;DHT22;18853;45.426;9.206;2022-11-20T11:41:04;18.30;48.20
32394;DHT22;18853;45.426;9.206;2022-11-20T11:43:32;18.20;48.00
32394;DHT22;18853;45.426;9.206;2022-11-20T11:49:14;18.30;46.30
32394;DHT22;18853;45.426;9.206;2022-11-20T11:54:40;18.60;47.10
32394;DHT22;18853;45.426;9.206;2022-11-20T11:57:38;18.60;45.20
32394;DHT22;18853;45.426;9.206;2022-11-20T12:00:14;18.80;46.30
32394;DHT22;18853;45.426;9.206;2022-11-20T12:05:19;19.00;45.50
32394;DHT22;18853;45.426;9.206;2022-11-20T12:10:45;19.20;45.20
32394;DHT22;18853;45.426;9.206;2022-11-20T12:15:59;19.40;44.10
32394;DHT22;18853;45.426;9.206;2022-11-20T12:18:26;19.20;43.20
32394;DHT22;18853;45.426;9.206;2022-11-20T12:29:36;18.90;42.60
32394;DHT22;18853;45.426;9.206;2022-11-20T12:34:46;18.90;42.50
32394;DHT22;18853;45.426;9.206;2022-11-20T12:46:35;19.00;40.90
32394;DHT22;18853;45.426;9.206;2022-11-20T12:49:19;19.20;40.60
32394;DHT22;18853;45.426;9.206;2022-11-20T12:52:19;19.20;41.30
32394;DHT22;18853;45.426;9.206;2022-11-20T12:55:03;19.30;40.40
32394;DHT22;18853;45.426;9.206;2022-11-20T12:58:01;19.40;40.20
32394;DHT22;18853;45.426;9.206;2022-11-20T13:00:31;19.40;40.00
32394;DHT22;18853;45.426;9.206;2022-11-20T13:05:39;19.70;41.10
32394;DHT22;18853;45.426;9.206;2022-11-20T13:08:18;19.80;40.00
32394;DHT22;18853;45.426;9.206;2022-11-20T13:13:39;19.90;38.20
32394;DHT22;18853;45.426;9.206;2022-11-20T13:18:41;20.00;38.50
32394;DHT22;18853;45.426;9.206;2022-11-20T13:21:15;20.10;38.90
32394;DHT22;18853;45.426;9.206;2022-11-20T13:23:41;20.20;38.40
32394;DHT22;18853;45.426;9.206;2022-11-20T13:26:22;20.40;38.40
32394;DHT22;18853;45.426;9.206;2022-11-20T13:29:09;20.50;37.30
32394;DHT22;18853;45.426;9.206;2022-11-20T13:31:40;20.70;36.90
32394;DHT22;18853;45.426;9.206;2022-11-20T13:34:33;20.80;36.40
32394;DHT22;18853;45.426;9.206;2022-11-20T13:36:58;20.80;37.00
32394;DHT22;18853;45.426;9.206;2022-11-20T13:39:36;20.90;35.80
32394;DHT22;18853;45.426;9.206;2022-11-20T13:44:44;21.30;41.50
32394;DHT22;18853;45.426;9.206;2022-11-20T13:47:23;21.50;39.40
32394;DHT22;18853;45.426;9.206;2022-11-20T13:49:51;21.70;38.60
32394;DHT22;18853;45.426;9.206;2022-11-20T13:52:34;21.80;36.00
32394;DHT22;18853;45.426;9.206;2022-11-20T14:01:11;22.10;33.60
32394;DHT22;18853;45.426;9.206;2022-11-20T14:03:40;22.10;33.00
32394;DHT22;18853;45.426;9.206;2022-11-20T14:06:30;22.10;33.90
32394;DHT22;18853;45.426;9.206;2022-11-20T14:08:57;22.20;34.20
32394;DHT22;18853;45.426;9.206;2022-11-20T14:11:28;22.30;36.90
32394;DHT22;18853;45.426;9.206;2022-11-20T14:16:30;22.40;32.00
32394;DHT22;18853;45.426;9.206;2022-11-20T14:19:22;22.40;33.20
32394;DHT22;18853;45.426;9.206;2022-11-20T14:21:51;22.40;32.20
32394;DHT22;18853;45.426;9.206;2022-11-20T14:24:22;22.40;31.40
32394;DHT22;18853;45.426;9.206;2022-11-20T14:26:48;22.40;31.90
32394;DHT22;18853;45.426;9.206;2022-11-20T14:29:17;22.40;31.70
32394;DHT22;18853;45.426;9.206;2022-11-20T14:31:45;22.40;31.60
32394;DHT22;18853;45.426;9.206;2022-11-20T14:34:19;22.30;30.80
32394;DHT22;18853;45.426;9.206;2022-11-20T14:36:45;22.30;30.40
32394;DHT22;18853;45.426;9.206;2022-11-20T14:39:21;22.20;31.00
32394;DHT22;18853;45.426;9.206;2022-11-20T14:41:54;22.10;32.00
32394;DHT22;18853;45.426;9.206;2022-11-20T14:44:32;22.10;31.70
32394;DHT22;18853;45.426;9.206;2022-11-20T14:46:59;22.00;32.70
32394;DHT22;18853;45.426;9.206;2022-11-20T14:49:26;21.90;31.70
32394;DHT22;18853;45.426;9.206;2022-11-20T14:52:02;21.50;31.60
32394;DHT22;18853;45.426;9.206;2022-11-20T14:54:28;21.30;32.10
32394;DHT22;18853;45.426;9.206;2022-11-20T14:59:30;20.80;33.10
32394;DHT22;18853;45.426;9.206;2022-11-20T15:02:02;20.50;33.80
32394;DHT22;18853;45.426;9.206;2022-11-20T15:04:28;20.30;34.50
32394;DHT22;18853;45.426;9.206;2022-11-20T15:06:57;20.10;35.60
32394;DHT22;18853;45.426;9.206;2022-11-20T15:09:22;20.00;35.70
32394;DHT22;18853;45.426;9.206;2022-11-20T15:11:59;19.90;35.30
32394;DHT22;18853;45.426;9.206;2022-11-20T15:14:27;19.90;35.30
32394;DHT22;18853;45.426;9.206;2022-11-20T15:16:54;19.70;36.20
32394;DHT22;18853;45.426;9.206;2022-11-20T15:19:22;19.70;40.10
32394;DHT22;18853;45.426;9.206;2022-11-20T15:21:48;19.80;40.60
32394;DHT22;18853;45.426;9.206;2022-11-20T15:24:14;19.90;39.40
32394;DHT22;18853;45.426;9.206;2022-11-20T15:26:40;19.90;38.50
32394;DHT22;18853;45.426;9.206;2022-11-20T15:29:11;19.90;38.90
32394;DHT22;18853;45.426;9.206;2022-11-20T15:31:37;19.90;38.50
32394;DHT22;18853;45.426;9.206;2022-11-20T15:34:10;19.90;39.20
32394;DHT22;18853;45.426;9.206;2022-11-20T15:36:39;19.90;39.60
32394;DHT22;18853;45.426;9.206;2022-11-20T15:39:06;19.90;39.40
32394;DHT22;18853;45.426;9.206;2022-11-20T15:41:35;20.00;39.70
32394;DHT22;18853;45.426;9.206;2022-11-20T15:44:02;20.00;38.90
32394;DHT22;18853;45.426;9.206;2022-11-20T15:46:30;19.90;38.90
32394;DHT22;18853;45.426;9.206;2022-11-20T15:48:59;19.90;41.60
32394;DHT22;18853;45.426;9.206;2022-11-20T15:51:34;20.00;42.30
32394;DHT22;18853;45.426;9.206;2022-11-20T15:54:01;20.10;41.80
32394;DHT22;18853;45.426;9.206;2022-11-20T15:56:29;20.00;38.20
32394;DHT22;18853;45.426;9.206;2022-11-20T15:58:54;19.80;37.40
32394;DHT22;18853;45.426;9.206;2022-11-20T16:01:21;19.60;37.50
32394;DHT22;18853;45.426;9.206;2022-11-20T16:03:48;19.40;38.00
32394;DHT22;18853;45.426;9.206;2022-11-20T16:06:13;19.20;38.80
32394;DHT22;18853;45.426;9.206;2022-11-20T16:08:44;19.00;38.60
32394;DHT22;18853;45.426;9.206;2022-11-20T16:11:14;18.80;39.10
32394;DHT22;18853;45.426;9.206;2022-11-20T16:13:40;18.60;39.60
32394;DHT22;18853;45.426;9.206;2022-11-20T16:16:28;18.50;39.80
32394;DHT22;18853;45.426;9.206;2022-11-20T16:18:56;18.40;40.20
32394;DHT22;18853;45.426;9.206;2022-11-20T16:21:22;18.30;40.20
32394;DHT22;18853;45.426;9.206;2022-11-20T16:23:53;18.20;40.50
32394;DHT22;18853;45.426;9.206;2022-11-20T16:26:19;18.10;40.80
32394;DHT22;18853;45.426;9.206;2022-11-20T16:28:46;18.00;41.30
32394;DHT22;18853;45.426;9.206;2022-11-20T16:31:14;17.90;41.60
32394;DHT22;18853;45.426;9.206;2022-11-20T16:33:40;17.80;42.00
32394;DHT22;18853;45.426;9.206;2022-11-20T16:36:11;17.70;42.30
32394;DHT22;18853;45.426;9.206;2022-11-20T16:38:37;17.80;45.20
32394;DHT22;18853;45.426;9.206;2022-11-20T16:41:03;17.90;43.10
32394;DHT22;18853;45.426;9.206;2022-11-20T16:43:29;17.90;46.60
32394;DHT22;18853;45.426;9.206;2022-11-20T16:45:55;18.10;43.80
32394;DHT22;18853;45.426;9.206;2022-11-20T16:48:20;18.00;42.90
32394;DHT22;18853;45.426;9.206;2022-11-20T16:50:51;17.90;42.80
32394;DHT22;18853;45.426;9.206;2022-11-20T16:53:18;17.70;42.90
32394;DHT22;18853;45.426;9.206;2022-11-20T16:55:44;17.60;43.20
32394;DHT22;18853;45.426;9.206;2022-11-20T16:58:10;17.50;43.70
32394;DHT22;18853;45.426;9.206;2022-11-20T17:00:36;17.40;43.40
32394;DHT22;18853;45.426;9.206;2022-11-20T17:03:03;17.30;43.70
32394;DHT22;18853;45.426;9.206;2022-11-20T17:05:29;17.20;44.00
32394;DHT22;18853;45.426;9.206;2022-11-20T17:07:55;17.10;44.30
32394;DHT22;18853;45.426;9.206;2022-11-20T17:10:21;17.00;44.70
32394;DHT22;18853;45.426;9.206;2022-11-20T17:12:46;16.90;44.80
32394;DHT22;18853;45.426;9.206;2022-11-20T17:15:12;16.90;45.00
32394;DHT22;18853;45.426;9.206;2022-11-20T17:17:38;16.80;45.00
32394;DHT22;18853;45.426;9.206;2022-11-20T17:20:04;16.80;45.10